sensor_id;sensor_type;location;lat;lon;timestamp;P1;durP1;ratioP1;P2;durP2;ratioP2
77518;SDS011;66629;47.346;19.038;2023-03-23T00:01:53;57.78;;;31.08;;
77518;SDS011;66629;47.346;19.038;2023-03-23T00:04:19;55.53;;;31.20;;
77518;SDS011;66629;47.346;19.038;2023-03-23T00:06:45;57.38;;;30.88;;
77518;SDS011;66629;47.346;19.038;2023-03-23T00:09:14;50.40;;;30.27;;
77518;SDS011;66629;47.346;19.038;2023-03-23T00:11:41;51.53;;;29.30;;
77518;SDS011;66629;47.346;19.038;2023-03-23T00:14:08;49.63;;;29.25;;
77518;SDS011;66629;47.346;19.038;2023-03-23T00:16:38;47.63;;;29.60;;
77518;SDS011;66629;47.346;19.038;2023-03-23T00:19:07;49.08;;;28.27;;
77518;SDS011;66629;47.346;19.038;2023-03-23T00:21:35;47.97;;;27.83;;
77518;SDS011;66629;47.346;19.038;2023-03-23T00:24:03;46.00;;;28.13;;
77518;SDS011;66629;47.346;19.038;2023-03-23T00:26:31;47.58;;;28.52;;
77518;SDS011;66629;47.346;19.038;2023-03-23T00:28:58;44.17;;;28.27;;
77518;SDS011;66629;47.346;19.038;2023-03-23T00:31:25;44.60;;;27.40;;
77518;SDS011;66629;47.346;19.038;2023-03-23T00:33:58;52.50;;;27.63;;
77518;SDS011;66629;47.346;19.038;2023-03-23T00:36:26;46.80;;;26.90;;
77518;SDS011;66629;47.346;19.038;2023-03-23T00:38:53;46.78;;;27.50;;
77518;SDS011;66629;47.346;19.038;2023-03-23T00:41:19;47.55;;;26.75;;
77518;SDS011;66629;47.346;19.038;2023-03-23T00:43:44;44.22;;;26.83;;
77518;SDS011;66629;47.346;19.038;2023-03-23T00:46:09;46.05;;;27.45;;
77518;SDS011;66629;47.346;19.038;2023-03-23T00:48:36;46.35;;;25.52;;
77518;SDS011;66629;47.346;19.038;2023-03-23T00:51:09;43.42;;;26.05;;
77518;SDS011;66629;47.346;19.038;2023-03-23T00:53:36;46.67;;;26.15;;
77518;SDS011;66629;47.346;19.038;2023-03-23T00:56:01;47.42;;;27.00;;
77518;SDS011;66629;47.346;19.038;2023-03-23T00:58:27;43.90;;;27.00;;
77518;SDS011;66629;47.346;19.038;2023-03-23T01:00:52;41.20;;;25.30;;
77518;SDS011;66629;47.346;19.038;2023-03-23T01:03:18;43.08;;;25.67;;
77518;SDS011;66629;47.346;19.038;2023-03-23T01:05:44;40.53;;;26.35;;
77518;SDS011;66629;47.346;19.038;2023-03-23T01:08:12;44.67;;;25.85;;
77518;SDS011;66629;47.346;19.038;2023-03-23T01:10:38;42.50;;;24.88;;
77518;SDS011;66629;47.346;19.038;2023-03-23T01:13:04;42.25;;;26.13;;
77518;SDS011;66629;47.346;19.038;2023-03-23T01:15:30;42.75;;;25.35;;
77518;SDS011;66629;47.346;19.038;2023-03-23T01:17:55;42.38;;;24.52;;
77518;SDS011;66629;47.346;19.038;2023-03-23T01:20:21;47.47;;;25.58;;
77518;SDS011;66629;47.346;19.038;2023-03-23T01:22:48;49.55;;;25.98;;
77518;SDS011;66629;47.346;19.038;2023-03-23T01:25:14;36.95;;;24.40;;
77518;SDS011;66629;47.346;19.038;2023-03-23T01:27:40;43.03;;;25.98;;
77518;SDS011;66629;47.346;19.038;2023-03-23T01:30:06;44.58;;;27.45;;
77518;SDS011;66629;47.346;19.038;2023-03-23T01:32:33;46.83;;;25.83;;
77518;SDS011;66629;47.346;19.038;2023-03-23T01:34:59;47.63;;;26.70;;
77518;SDS011;66629;47.346;19.038;2023-03-23T01:37:25;42.40;;;25.20;;
77518;SDS011;66629;47.346;19.038;2023-03-23T01:39:55;50.97;;;26.45;;
77518;SDS011;66629;47.346;19.038;2023-03-23T01:42:24;40.05;;;26.02;;
77518;SDS011;66629;47.346;19.038;2023-03-23T01:47:16;42.15;;;25.55;;
77518;SDS011;66629;47.346;19.038;2023-03-23T01:49:48;43.55;;;25.60;;
77518;SDS011;66629;47.346;19.038;2023-03-23T01:52:25;40.38;;;24.45;;
77518;SDS011;66629;47.346;19.038;2023-03-23T01:54:54;39.60;;;25.48;;
77518;SDS011;66629;47.346;19.038;2023-03-23T01:57:21;41.28;;;25.58;;
77518;SDS011;66629;47.346;19.038;2023-03-23T01:59:49;40.63;;;24.75;;
77518;SDS011;66629;47.346;19.038;2023-03-23T02:02:17;40.78;;;24.27;;
77518;SDS011;66629;47.346;19.038;2023-03-23T02:04:45;43.90;;;25.35;;
77518;SDS011;66629;47.346;19.038;2023-03-23T02:07:11;44.00;;;24.58;;
77518;SDS011;66629;47.346;19.038;2023-03-23T02:09:39;39.75;;;24.85;;
77518;SDS011;66629;47.346;19.038;2023-03-23T02:12:04;42.33;;;24.95;;
77518;SDS011;66629;47.346;19.038;2023-03-23T02:14:30;38.63;;;24.50;;
77518;SDS011;66629;47.346;19.038;2023-03-23T02:38:46;37.33;;;23.35;;
77518;SDS011;66629;47.346;19.038;2023-03-23T02:41:21;37.67;;;22.92;;
77518;SDS011;66629;47.346;19.038;2023-03-23T02:43:49;38.13;;;24.13;;
77518;SDS011;66629;47.346;19.038;2023-03-23T02:46:16;45.33;;;25.30;;
77518;SDS011;66629;47.346;19.038;2023-03-23T02:48:42;42.08;;;23.73;;
77518;SDS011;66629;47.346;19.038;2023-03-23T02:51:10;41.70;;;23.95;;
77518;SDS011;66629;47.346;19.038;2023-03-23T02:53:39;42.53;;;24.35;;
77518;SDS011;66629;47.346;19.038;2023-03-23T02:56:06;37.75;;;24.33;;
77518;SDS011;66629;47.346;19.038;2023-03-23T02:58:33;45.85;;;25.15;;
77518;SDS011;66629;47.346;19.038;2023-03-23T03:00:58;36.38;;;23.88;;
77518;SDS011;66629;47.346;19.038;2023-03-23T03:03:26;43.50;;;24.92;;
77518;SDS011;66629;47.346;19.038;2023-03-23T03:06:01;41.53;;;24.48;;
77518;SDS011;66629;47.346;19.038;2023-03-23T03:11:04;36.53;;;24.02;;
77518;SDS011;66629;47.346;19.038;2023-03-23T03:14:17;35.78;;;22.90;;
77518;SDS011;66629;47.346;19.038;2023-03-23T03:21:37;42.33;;;24.77;;
77518;SDS011;66629;47.346;19.038;2023-03-23T03:24:07;44.30;;;24.45;;
77518;SDS011;66629;47.346;19.038;2023-03-23T03:26:36;40.65;;;24.13;;
77518;SDS011;66629;47.346;19.038;2023-03-23T03:29:04;41.13;;;23.88;;
77518;SDS011;66629;47.346;19.038;2023-03-23T03:31:35;42.08;;;24.92;;
77518;SDS011;66629;47.346;19.038;2023-03-23T03:34:04;38.70;;;24.42;;
77518;SDS011;66629;47.346;19.038;2023-03-23T03:36:32;42.22;;;23.85;;
77518;SDS011;66629;47.346;19.038;2023-03-23T03:39:03;40.95;;;23.42;;
77518;SDS011;66629;47.346;19.038;2023-03-23T03:41:32;38.88;;;23.77;;
77518;SDS011;66629;47.346;19.038;2023-03-23T03:44:02;40.60;;;23.33;;
77518;SDS011;66629;47.346;19.038;2023-03-23T03:46:28;41.80;;;24.77;;
77518;SDS011;66629;47.346;19.038;2023-03-23T03:48:56;41.47;;;23.50;;
77518;SDS011;66629;47.346;19.038;2023-03-23T03:51:22;43.63;;;25.63;;
77518;SDS011;66629;47.346;19.038;2023-03-23T03:53:48;39.60;;;25.65;;
77518;SDS011;66629;47.346;19.038;2023-03-23T03:56:14;47.65;;;28.08;;
77518;SDS011;66629;47.346;19.038;2023-03-23T03:58:39;49.42;;;28.85;;
77518;SDS011;66629;47.346;19.038;2023-03-23T04:01:07;50.97;;;29.05;;
77518;SDS011;66629;47.346;19.038;2023-03-23T04:03:35;50.67;;;29.27;;
77518;SDS011;66629;47.346;19.038;2023-03-23T04:06:01;46.72;;;30.85;;
77518;SDS011;66629;47.346;19.038;2023-03-23T04:08:27;53.10;;;29.95;;
77518;SDS011;66629;47.346;19.038;2023-03-23T04:10:53;49.35;;;30.13;;
77518;SDS011;66629;47.346;19.038;2023-03-23T04:13:19;44.63;;;28.42;;
77518;SDS011;66629;47.346;19.038;2023-03-23T04:15:45;42.72;;;27.60;;
77518;SDS011;66629;47.346;19.038;2023-03-23T04:18:12;42.28;;;28.13;;
77518;SDS011;66629;47.346;19.038;2023-03-23T04:20:40;43.45;;;26.58;;
77518;SDS011;66629;47.346;19.038;2023-03-23T04:23:06;44.97;;;25.85;;
77518;SDS011;66629;47.346;19.038;2023-03-23T04:25:32;46.10;;;28.73;;
77518;SDS011;66629;47.346;19.038;2023-03-23T04:27:58;44.22;;;27.25;;
77518;SDS011;66629;47.346;19.038;2023-03-23T04:30:25;43.88;;;26.17;;
77518;SDS011;66629;47.346;19.038;2023-03-23T04:32:52;46.03;;;27.02;;
77518;SDS011;66629;47.346;19.038;2023-03-23T04:35:20;48.47;;;26.95;;
77518;SDS011;66629;47.346;19.038;2023-03-23T04:37:47;42.72;;;26.48;;
77518;SDS011;66629;47.346;19.038;2023-03-23T04:40:13;41.63;;;26.02;;
77518;SDS011;66629;47.346;19.038;2023-03-23T04:42:43;41.80;;;26.23;;
77518;SDS011;66629;47.346;19.038;2023-03-23T04:47:41;46.17;;;25.45;;
77518;SDS011;66629;47.346;19.038;2023-03-23T04:50:14;43.33;;;25.80;;
77518;SDS011;66629;47.346;19.038;2023-03-23T04:52:40;46.85;;;27.83;;
77518;SDS011;66629;47.346;19.038;2023-03-23T04:55:10;46.33;;;27.30;;
77518;SDS011;66629;47.346;19.038;2023-03-23T04:57:37;46.25;;;27.52;;
77518;SDS011;66629;47.346;19.038;2023-03-23T05:00:04;42.88;;;27.58;;
77518;SDS011;66629;47.346;19.038;2023-03-23T05:02:36;45.78;;;27.30;;
77518;SDS011;66629;47.346;19.038;2023-03-23T05:05:10;46.22;;;27.67;;
77518;SDS011;66629;47.346;19.038;2023-03-23T05:07:39;45.33;;;26.60;;
77518;SDS011;66629;47.346;19.038;2023-03-23T05:10:06;46.63;;;27.73;;
77518;SDS011;66629;47.346;19.038;2023-03-23T05:12:33;44.33;;;25.70;;
77518;SDS011;66629;47.346;19.038;2023-03-23T05:14:59;43.75;;;27.63;;
77518;SDS011;66629;47.346;19.038;2023-03-23T05:17:25;47.15;;;28.17;;
77518;SDS011;66629;47.346;19.038;2023-03-23T05:19:51;45.45;;;25.98;;
77518;SDS011;66629;47.346;19.038;2023-03-23T05:22:16;45.25;;;26.88;;
77518;SDS011;66629;47.346;19.038;2023-03-23T05:24:42;49.90;;;28.38;;
77518;SDS011;66629;47.346;19.038;2023-03-23T05:27:10;49.17;;;28.25;;
77518;SDS011;66629;47.346;19.038;2023-03-23T05:29:36;43.53;;;27.90;;
77518;SDS011;66629;47.346;19.038;2023-03-23T05:32:06;53.45;;;27.48;;
77518;SDS011;66629;47.346;19.038;2023-03-23T05:34:33;47.90;;;28.27;;
77518;SDS011;66629;47.346;19.038;2023-03-23T05:36:59;67.55;;;36.65;;
77518;SDS011;66629;47.346;19.038;2023-03-23T05:39:26;76.75;;;34.05;;
77518;SDS011;66629;47.346;19.038;2023-03-23T05:41:53;60.92;;;29.55;;
77518;SDS011;66629;47.346;19.038;2023-03-23T05:44:19;54.65;;;31.13;;
77518;SDS011;66629;47.346;19.038;2023-03-23T05:46:45;50.60;;;31.13;;
77518;SDS011;66629;47.346;19.038;2023-03-23T05:49:10;56.47;;;33.13;;
77518;SDS011;66629;47.346;19.038;2023-03-23T05:51:36;61.28;;;35.20;;
77518;SDS011;66629;47.346;19.038;2023-03-23T05:54:02;63.10;;;40.33;;
77518;SDS011;66629;47.346;19.038;2023-03-23T05:56:28;61.92;;;44.03;;
77518;SDS011;66629;47.346;19.038;2023-03-23T05:58:55;48.53;;;34.05;;
77518;SDS011;66629;47.346;19.038;2023-03-23T06:01:20;33.17;;;22.00;;
77518;SDS011;66629;47.346;19.038;2023-03-23T06:03:46;30.20;;;19.70;;
77518;SDS011;66629;47.346;19.038;2023-03-23T06:06:14;28.05;;;18.40;;
77518;SDS011;66629;47.346;19.038;2023-03-23T06:08:39;28.38;;;18.38;;
77518;SDS011;66629;47.346;19.038;2023-03-23T06:11:04;26.52;;;18.45;;
77518;SDS011;66629;47.346;19.038;2023-03-23T06:13:31;23.98;;;17.20;;
77518;SDS011;66629;47.346;19.038;2023-03-23T06:15:57;27.10;;;18.65;;
77518;SDS011;66629;47.346;19.038;2023-03-23T06:18:23;28.08;;;17.83;;
77518;SDS011;66629;47.346;19.038;2023-03-23T06:20:50;29.95;;;17.02;;
77518;SDS011;66629;47.346;19.038;2023-03-23T06:23:16;26.90;;;14.50;;
77518;SDS011;66629;47.346;19.038;2023-03-23T06:25:42;22.40;;;14.02;;
77518;SDS011;66629;47.346;19.038;2023-03-23T06:28:08;18.80;;;13.38;;
77518;SDS011;66629;47.346;19.038;2023-03-23T06:30:34;19.25;;;12.90;;
77518;SDS011;66629;47.346;19.038;2023-03-23T06:33:01;21.05;;;13.32;;
77518;SDS011;66629;47.346;19.038;2023-03-23T06:35:30;19.55;;;12.38;;
77518;SDS011;66629;47.346;19.038;2023-03-23T06:37:56;20.65;;;13.38;;
77518;SDS011;66629;47.346;19.038;2023-03-23T06:40:23;20.23;;;11.23;;
77518;SDS011;66629;47.346;19.038;2023-03-23T06:42:48;17.98;;;12.43;;
77518;SDS011;66629;47.346;19.038;2023-03-23T06:45:14;19.10;;;12.25;;
77518;SDS011;66629;47.346;19.038;2023-03-23T06:47:39;18.98;;;12.55;;
77518;SDS011;66629;47.346;19.038;2023-03-23T06:50:05;20.20;;;12.27;;
77518;SDS011;66629;47.346;19.038;2023-03-23T06:52:32;20.05;;;12.55;;
77518;SDS011;66629;47.346;19.038;2023-03-23T06:54:58;20.00;;;12.13;;
77518;SDS011;66629;47.346;19.038;2023-03-23T06:57:23;20.35;;;12.95;;
77518;SDS011;66629;47.346;19.038;2023-03-23T06:59:48;19.13;;;13.15;;
77518;SDS011;66629;47.346;19.038;2023-03-23T07:02:14;20.00;;;13.20;;
77518;SDS011;66629;47.346;19.038;2023-03-23T07:04:40;19.30;;;14.02;;
77518;SDS011;66629;47.346;19.038;2023-03-23T07:07:10;25.23;;;14.73;;
77518;SDS011;66629;47.346;19.038;2023-03-23T07:09:38;27.23;;;14.40;;
77518;SDS011;66629;47.346;19.038;2023-03-23T07:12:03;21.67;;;14.25;;
77518;SDS011;66629;47.346;19.038;2023-03-23T07:14:30;25.95;;;13.82;;
77518;SDS011;66629;47.346;19.038;2023-03-23T07:16:55;20.10;;;13.02;;
77518;SDS011;66629;47.346;19.038;2023-03-23T07:19:21;31.02;;;13.93;;
77518;SDS011;66629;47.346;19.038;2023-03-23T07:21:47;22.27;;;13.80;;
77518;SDS011;66629;47.346;19.038;2023-03-23T07:24:12;24.73;;;13.55;;
77518;SDS011;66629;47.346;19.038;2023-03-23T07:26:39;22.13;;;12.82;;
77518;SDS011;66629;47.346;19.038;2023-03-23T07:29:06;24.85;;;13.70;;
77518;SDS011;66629;47.346;19.038;2023-03-23T07:31:34;22.05;;;12.90;;
77518;SDS011;66629;47.346;19.038;2023-03-23T07:34:01;22.50;;;13.27;;
77518;SDS011;66629;47.346;19.038;2023-03-23T07:36:27;20.65;;;12.63;;
77518;SDS011;66629;47.346;19.038;2023-03-23T07:38:53;26.83;;;13.13;;
77518;SDS011;66629;47.346;19.038;2023-03-23T07:41:19;24.27;;;12.98;;
77518;SDS011;66629;47.346;19.038;2023-03-23T07:43:45;24.80;;;13.20;;
77518;SDS011;66629;47.346;19.038;2023-03-23T07:46:11;20.20;;;12.35;;
77518;SDS011;66629;47.346;19.038;2023-03-23T07:48:37;21.92;;;12.77;;
77518;SDS011;66629;47.346;19.038;2023-03-23T07:51:03;21.05;;;13.10;;
77518;SDS011;66629;47.346;19.038;2023-03-23T07:53:30;21.33;;;12.80;;
77518;SDS011;66629;47.346;19.038;2023-03-23T07:55:55;22.30;;;11.80;;
77518;SDS011;66629;47.346;19.038;2023-03-23T07:58:22;17.65;;;12.23;;
77518;SDS011;66629;47.346;19.038;2023-03-23T08:00:47;17.05;;;11.43;;
77518;SDS011;66629;47.346;19.038;2023-03-23T08:03:14;18.13;;;11.73;;
77518;SDS011;66629;47.346;19.038;2023-03-23T08:05:40;23.95;;;12.57;;
77518;SDS011;66629;47.346;19.038;2023-03-23T08:08:07;19.08;;;12.32;;
77518;SDS011;66629;47.346;19.038;2023-03-23T08:10:34;19.95;;;12.68;;
77518;SDS011;66629;47.346;19.038;2023-03-23T08:13:00;18.75;;;11.98;;
77518;SDS011;66629;47.346;19.038;2023-03-23T08:15:27;21.20;;;11.50;;
77518;SDS011;66629;47.346;19.038;2023-03-23T08:17:53;15.60;;;11.63;;
77518;SDS011;66629;47.346;19.038;2023-03-23T08:20:19;22.23;;;10.95;;
77518;SDS011;66629;47.346;19.038;2023-03-23T08:22:48;20.45;;;10.73;;
77518;SDS011;66629;47.346;19.038;2023-03-23T08:25:17;17.77;;;11.37;;
77518;SDS011;66629;47.346;19.038;2023-03-23T08:27:43;18.83;;;11.05;;
77518;SDS011;66629;47.346;19.038;2023-03-23T08:30:10;19.48;;;10.88;;
77518;SDS011;66629;47.346;19.038;2023-03-23T08:32:38;16.77;;;10.82;;
77518;SDS011;66629;47.346;19.038;2023-03-23T08:35:04;18.55;;;11.63;;
77518;SDS011;66629;47.346;19.038;2023-03-23T08:37:30;15.20;;;10.65;;
77518;SDS011;66629;47.346;19.038;2023-03-23T08:39:56;15.10;;;10.95;;
77518;SDS011;66629;47.346;19.038;2023-03-23T08:42:23;22.95;;;11.27;;
77518;SDS011;66629;47.346;19.038;2023-03-23T08:44:49;14.82;;;10.95;;
77518;SDS011;66629;47.346;19.038;2023-03-23T08:47:15;18.83;;;10.30;;
77518;SDS011;66629;47.346;19.038;2023-03-23T08:49:41;15.07;;;10.02;;
77518;SDS011;66629;47.346;19.038;2023-03-23T08:52:07;17.13;;;10.75;;
77518;SDS011;66629;47.346;19.038;2023-03-23T08:54:33;15.43;;;10.68;;
77518;SDS011;66629;47.346;19.038;2023-03-23T08:57:01;14.98;;;9.98;;
77518;SDS011;66629;47.346;19.038;2023-03-23T08:59:28;15.25;;;9.60;;
77518;SDS011;66629;47.346;19.038;2023-03-23T09:01:53;16.70;;;10.82;;
77518;SDS011;66629;47.346;19.038;2023-03-23T09:04:19;15.80;;;9.95;;
77518;SDS011;66629;47.346;19.038;2023-03-23T09:06:45;17.35;;;10.32;;
77518;SDS011;66629;47.346;19.038;2023-03-23T09:09:11;14.02;;;10.02;;
77518;SDS011;66629;47.346;19.038;2023-03-23T09:11:37;14.45;;;10.02;;
77518;SDS011;66629;47.346;19.038;2023-03-23T09:14:04;18.88;;;10.57;;
77518;SDS011;66629;47.346;19.038;2023-03-23T09:16:33;17.50;;;10.18;;
77518;SDS011;66629;47.346;19.038;2023-03-23T09:18:58;18.23;;;10.40;;
77518;SDS011;66629;47.346;19.038;2023-03-23T09:21:24;13.35;;;9.05;;
77518;SDS011;66629;47.346;19.038;2023-03-23T09:23:51;17.33;;;10.48;;
77518;SDS011;66629;47.346;19.038;2023-03-23T09:26:17;15.75;;;9.85;;
77518;SDS011;66629;47.346;19.038;2023-03-23T09:28:43;15.10;;;9.90;;
77518;SDS011;66629;47.346;19.038;2023-03-23T09:31:10;16.17;;;9.68;;
77518;SDS011;66629;47.346;19.038;2023-03-23T09:33:37;12.82;;;8.77;;
77518;SDS011;66629;47.346;19.038;2023-03-23T09:36:03;13.35;;;8.32;;
77518;SDS011;66629;47.346;19.038;2023-03-23T09:38:30;13.18;;;8.65;;
77518;SDS011;66629;47.346;19.038;2023-03-23T09:49:10;10.95;;;7.40;;
77518;SDS011;66629;47.346;19.038;2023-03-23T09:54:10;14.63;;;7.78;;
77518;SDS011;66629;47.346;19.038;2023-03-23T09:56:42;12.63;;;6.57;;
77518;SDS011;66629;47.346;19.038;2023-03-23T09:59:52;12.82;;;6.47;;
77518;SDS011;66629;47.346;19.038;2023-03-23T10:04:46;10.93;;;6.28;;
77518;SDS011;66629;47.346;19.038;2023-03-23T10:09:42;12.05;;;7.22;;
77518;SDS011;66629;47.346;19.038;2023-03-23T10:12:21;15.02;;;7.55;;
77518;SDS011;66629;47.346;19.038;2023-03-23T10:15:12;10.15;;;6.53;;
77518;SDS011;66629;47.346;19.038;2023-03-23T10:25:43;10.15;;;5.30;;
77518;SDS011;66629;47.346;19.038;2023-03-23T10:28:21;7.72;;;4.70;;
77518;SDS011;66629;47.346;19.038;2023-03-23T10:30:59;6.00;;;3.90;;
77518;SDS011;66629;47.346;19.038;2023-03-23T10:41:41;8.98;;;3.60;;
77518;SDS011;66629;47.346;19.038;2023-03-23T10:44:12;5.90;;;3.80;;
77518;SDS011;66629;47.346;19.038;2023-03-23T10:47:00;7.75;;;3.97;;
77518;SDS011;66629;47.346;19.038;2023-03-23T10:49:43;7.70;;;3.90;;
77518;SDS011;66629;47.346;19.038;2023-03-23T10:55:00;6.65;;;4.18;;
77518;SDS011;66629;47.346;19.038;2023-03-23T10:57:30;5.80;;;3.60;;
77518;SDS011;66629;47.346;19.038;2023-03-23T11:00:05;5.30;;;3.45;;
77518;SDS011;66629;47.346;19.038;2023-03-23T11:02:45;7.47;;;4.53;;
77518;SDS011;66629;47.346;19.038;2023-03-23T11:05:18;8.40;;;3.50;;
77518;SDS011;66629;47.346;19.038;2023-03-23T11:07:48;46.75;;;5.28;;
77518;SDS011;66629;47.346;19.038;2023-03-23T11:10:22;7.88;;;3.70;;
77518;SDS011;66629;47.346;19.038;2023-03-23T11:12:50;5.95;;;3.70;;
77518;SDS011;66629;47.346;19.038;2023-03-23T11:17:59;8.65;;;3.45;;
77518;SDS011;66629;47.346;19.038;2023-03-23T11:20:28;7.45;;;3.38;;
77518;SDS011;66629;47.346;19.038;2023-03-23T11:22:55;5.35;;;3.17;;
77518;SDS011;66629;47.346;19.038;2023-03-23T11:25:21;5.53;;;3.08;;
77518;SDS011;66629;47.346;19.038;2023-03-23T11:27:47;4.13;;;2.90;;
77518;SDS011;66629;47.346;19.038;2023-03-23T11:30:25;5.22;;;2.92;;
77518;SDS011;66629;47.346;19.038;2023-03-23T11:32:52;9.02;;;2.97;;
77518;SDS011;66629;47.346;19.038;2023-03-23T11:35:21;6.07;;;3.10;;
77518;SDS011;66629;47.346;19.038;2023-03-23T11:37:54;6.53;;;3.55;;
77518;SDS011;66629;47.346;19.038;2023-03-23T11:40:26;5.07;;;3.13;;
77518;SDS011;66629;47.346;19.038;2023-03-23T11:42:58;7.78;;;3.17;;
77518;SDS011;66629;47.346;19.038;2023-03-23T11:45:36;6.75;;;3.03;;
77518;SDS011;66629;47.346;19.038;2023-03-23T11:51:02;8.57;;;3.55;;
77518;SDS011;66629;47.346;19.038;2023-03-23T11:56:23;3.88;;;3.00;;
77518;SDS011;66629;47.346;19.038;2023-03-23T11:58:50;5.88;;;2.92;;
77518;SDS011;66629;47.346;19.038;2023-03-23T12:01:34;5.55;;;2.90;;
77518;SDS011;66629;47.346;19.038;2023-03-23T12:06:43;7.63;;;3.08;;
77518;SDS011;66629;47.346;19.038;2023-03-23T12:34:34;5.78;;;2.85;;
77518;SDS011;66629;47.346;19.038;2023-03-23T12:39:53;3.92;;;2.75;;
77518;SDS011;66629;47.346;19.038;2023-03-23T12:42:32;4.60;;;2.97;;
77518;SDS011;66629;47.346;19.038;2023-03-23T12:48:13;7.47;;;2.97;;
77518;SDS011;66629;47.346;19.038;2023-03-23T12:50:45;6.68;;;2.90;;
77518;SDS011;66629;47.346;19.038;2023-03-23T12:53:27;3.55;;;2.50;;
77518;SDS011;66629;47.346;19.038;2023-03-23T12:58:47;5.97;;;2.95;;
77518;SDS011;66629;47.346;19.038;2023-03-23T13:03:50;10.80;;;3.17;;
77518;SDS011;66629;47.346;19.038;2023-03-23T13:11:21;12.32;;;5.90;;
77518;SDS011;66629;47.346;19.038;2023-03-23T13:13:56;8.50;;;5.43;;
77518;SDS011;66629;47.346;19.038;2023-03-23T13:16:35;7.97;;;4.60;;
77518;SDS011;66629;47.346;19.038;2023-03-23T13:24:33;15.18;;;7.07;;
77518;SDS011;66629;47.346;19.038;2023-03-23T13:27:04;8.30;;;4.22;;
77518;SDS011;66629;47.346;19.038;2023-03-23T13:29:31;9.05;;;4.40;;
77518;SDS011;66629;47.346;19.038;2023-03-23T13:32:10;6.50;;;3.42;;
77518;SDS011;66629;47.346;19.038;2023-03-23T13:34:38;9.30;;;4.78;;
77518;SDS011;66629;47.346;19.038;2023-03-23T13:37:08;8.30;;;2.88;;
77518;SDS011;66629;47.346;19.038;2023-03-23T13:39:38;4.45;;;3.03;;
77518;SDS011;66629;47.346;19.038;2023-03-23T13:42:25;5.07;;;3.00;;
77518;SDS011;66629;47.346;19.038;2023-03-23T13:49:59;6.32;;;2.97;;
77518;SDS011;66629;47.346;19.038;2023-03-23T13:53:00;6.65;;;3.08;;
77518;SDS011;66629;47.346;19.038;2023-03-23T14:08:43;9.30;;;3.40;;
77518;SDS011;66629;47.346;19.038;2023-03-23T14:14:00;5.13;;;3.30;;
77518;SDS011;66629;47.346;19.038;2023-03-23T14:16:37;5.28;;;2.85;;
77518;SDS011;66629;47.346;19.038;2023-03-23T14:19:18;8.82;;;2.83;;
77518;SDS011;66629;47.346;19.038;2023-03-23T14:21:54;6.60;;;3.30;;
77518;SDS011;66629;47.346;19.038;2023-03-23T14:24:25;5.05;;;3.00;;
77518;SDS011;66629;47.346;19.038;2023-03-23T14:26:53;9.05;;;2.80;;
77518;SDS011;66629;47.346;19.038;2023-03-23T14:29:27;7.60;;;2.80;;
77518;SDS011;66629;47.346;19.038;2023-03-23T14:31:54;10.80;;;3.08;;
77518;SDS011;66629;47.346;19.038;2023-03-23T14:34:21;7.57;;;3.83;;
77518;SDS011;66629;47.346;19.038;2023-03-23T14:36:50;7.68;;;3.42;;
77518;SDS011;66629;47.346;19.038;2023-03-23T14:39:19;10.88;;;3.33;;
77518;SDS011;66629;47.346;19.038;2023-03-23T14:41:48;4.40;;;3.28;;
77518;SDS011;66629;47.346;19.038;2023-03-23T14:44:17;5.35;;;3.05;;
77518;SDS011;66629;47.346;19.038;2023-03-23T14:46:46;6.60;;;3.30;;
77518;SDS011;66629;47.346;19.038;2023-03-23T14:49:18;6.15;;;3.13;;
77518;SDS011;66629;47.346;19.038;2023-03-23T14:54:12;5.93;;;3.28;;
77518;SDS011;66629;47.346;19.038;2023-03-23T14:56:40;7.97;;;3.40;;
77518;SDS011;66629;47.346;19.038;2023-03-23T14:59:09;5.85;;;2.75;;
77518;SDS011;66629;47.346;19.038;2023-03-23T15:01:36;6.75;;;3.15;;
77518;SDS011;66629;47.346;19.038;2023-03-23T15:06:32;7.70;;;3.40;;
77518;SDS011;66629;47.346;19.038;2023-03-23T15:09:02;10.30;;;3.35;;
77518;SDS011;66629;47.346;19.038;2023-03-23T15:11:31;7.53;;;2.90;;
77518;SDS011;66629;47.346;19.038;2023-03-23T15:14:07;7.07;;;3.03;;
77518;SDS011;66629;47.346;19.038;2023-03-23T15:16:39;7.18;;;3.08;;
77518;SDS011;66629;47.346;19.038;2023-03-23T15:19:16;5.65;;;3.55;;
77518;SDS011;66629;47.346;19.038;2023-03-23T15:26:48;8.43;;;3.00;;
77518;SDS011;66629;47.346;19.038;2023-03-23T15:29:18;9.50;;;3.20;;
77518;SDS011;66629;47.346;19.038;2023-03-23T15:31:55;10.95;;;3.22;;
77518;SDS011;66629;47.346;19.038;2023-03-23T15:37:20;5.65;;;2.83;;
77518;SDS011;66629;47.346;19.038;2023-03-23T15:39:46;8.20;;;3.00;;
77518;SDS011;66629;47.346;19.038;2023-03-23T15:57:45;9.23;;;3.00;;
77518;SDS011;66629;47.346;19.038;2023-03-23T16:00:10;7.95;;;3.20;;
77518;SDS011;66629;47.346;19.038;2023-03-23T16:02:37;6.05;;;3.10;;
77518;SDS011;66629;47.346;19.038;2023-03-23T16:05:02;8.18;;;3.15;;
77518;SDS011;66629;47.346;19.038;2023-03-23T16:07:29;9.13;;;2.92;;
77518;SDS011;66629;47.346;19.038;2023-03-23T16:09:54;10.23;;;2.92;;
77518;SDS011;66629;47.346;19.038;2023-03-23T16:12:20;6.20;;;3.13;;
77518;SDS011;66629;47.346;19.038;2023-03-23T16:14:45;6.70;;;3.35;;
77518;SDS011;66629;47.346;19.038;2023-03-23T16:17:18;6.78;;;3.10;;
77518;SDS011;66629;47.346;19.038;2023-03-23T16:19:44;9.88;;;3.40;;
77518;SDS011;66629;47.346;19.038;2023-03-23T16:22:09;11.30;;;3.50;;
77518;SDS011;66629;47.346;19.038;2023-03-23T16:24:35;7.85;;;3.33;;
77518;SDS011;66629;47.346;19.038;2023-03-23T16:27:00;10.70;;;3.47;;
77518;SDS011;66629;47.346;19.038;2023-03-23T16:29:26;13.63;;;3.55;;
77518;SDS011;66629;47.346;19.038;2023-03-23T16:31:52;9.13;;;3.42;;
77518;SDS011;66629;47.346;19.038;2023-03-23T16:34:17;7.32;;;3.25;;
77518;SDS011;66629;47.346;19.038;2023-03-23T16:36:43;12.85;;;3.90;;
77518;SDS011;66629;47.346;19.038;2023-03-23T16:39:10;8.40;;;4.13;;
77518;SDS011;66629;47.346;19.038;2023-03-23T16:41:36;9.45;;;3.70;;
77518;SDS011;66629;47.346;19.038;2023-03-23T16:44:01;9.55;;;4.03;;
77518;SDS011;66629;47.346;19.038;2023-03-23T16:46:27;8.73;;;3.95;;
77518;SDS011;66629;47.346;19.038;2023-03-23T16:48:53;9.38;;;3.83;;
77518;SDS011;66629;47.346;19.038;2023-03-23T16:51:19;10.00;;;3.80;;
77518;SDS011;66629;47.346;19.038;2023-03-23T16:53:44;17.67;;;4.20;;
77518;SDS011;66629;47.346;19.038;2023-03-23T16:56:10;13.32;;;3.88;;
77518;SDS011;66629;47.346;19.038;2023-03-23T16:58:35;8.90;;;3.90;;
77518;SDS011;66629;47.346;19.038;2023-03-23T17:01:01;15.73;;;4.53;;
77518;SDS011;66629;47.346;19.038;2023-03-23T17:03:27;11.93;;;4.25;;
77518;SDS011;66629;47.346;19.038;2023-03-23T17:05:53;9.15;;;4.45;;
77518;SDS011;66629;47.346;19.038;2023-03-23T17:08:18;15.52;;;5.68;;
77518;SDS011;66629;47.346;19.038;2023-03-23T17:10:45;16.80;;;6.45;;
77518;SDS011;66629;47.346;19.038;2023-03-23T17:13:11;17.63;;;7.13;;
77518;SDS011;66629;47.346;19.038;2023-03-23T17:15:37;13.63;;;7.10;;
77518;SDS011;66629;47.346;19.038;2023-03-23T17:18:06;15.63;;;6.80;;
77518;SDS011;66629;47.346;19.038;2023-03-23T17:20:32;15.40;;;6.38;;